EETN/TLL METAR and TAF weather

Enter ICAO airport designator
Station Type Date Time Source
EETN METAR 2018/01/24 07:20 UTC NOAA

EETN 240720Z 17017KT 4500 SN BLSN OVC008 M06/M07 Q1010 R08/420295 TEMPO 2000


Station Type Date Time Source
EETN Decoded METAR 2018/01/24 07:20 UTC NOAA

Tallinn, Estonia (EETN) 59-24N 024-49E 34M
Jan 24, 2018 - 02:20 AM EST / 2018.01.24 0720 UTC
Wind: from the S (170 degrees) at 20 MPH (17 KT):0
Visibility: 2 mile(s):0
Sky conditions: overcast
Weather: snow; blowing snow
Temperature: 21 F (-6 C)
Windchill: 5 F (-15 C):1
Dew Point: 19 F (-7 C)
Relative Humidity: 92%
Pressure (altimeter): 29.83 in. Hg (1010 hPa)
ob: EETN 240720Z 17017KT 4500 SN BLSN OVC008 M06/M07 Q1010 R08/420295 TEMPO 2000
cycle: 7

Station Type Date Time Source
EETN TAF 2018/01/24 06:39 UTC NOAA

TAF TAF EETN 240530Z 2406/2506 17020G30KT 2000 SN BLSN BKN006 OVC010
TEMPO 2406/2415 0500 +SN BLSN VV004
TEMPO 2410/2416 FZRA
BECMG 2415/2417 21014KT 3000 BR OVC004
TEMPO 2417/2422 1000 DZ BR OVC002
BECMG 2422/2424 19016G26KT 5000 RA BKN006 BKN015


Example: see airport list